createdAt,value
2018-04-12T00:00:03.606Z,13.93
2018-04-12T00:02:31.887Z,10.13
2018-04-12T00:05:00.153Z,14.17
2018-04-12T00:07:28.441Z,14.63
2018-04-12T00:09:56.711Z,11.73
2018-04-12T00:12:24.977Z,10.93
2018-04-12T00:14:53.253Z,12.80
2018-04-12T00:17:21.521Z,12.83
2018-04-12T00:19:49.810Z,10.17
2018-04-12T00:22:18.074Z,16.67
2018-04-12T00:24:46.345Z,10.90
2018-04-12T00:27:14.625Z,9.83
2018-04-12T00:29:42.890Z,13.47
2018-04-12T00:32:11.178Z,14.07
2018-04-12T00:34:39.454Z,11.77
2018-04-12T00:37:07.729Z,11.63
2018-04-12T00:39:36.006Z,11.97
2018-04-12T00:42:04.289Z,10.10
2018-04-12T00:44:32.574Z,11.10
2018-04-12T00:47:00.845Z,10.13
2018-04-12T00:49:29.116Z,11.67
2018-04-12T00:51:57.393Z,11.23
2018-04-12T00:54:25.663Z,8.70
2018-04-12T00:56:53.945Z,13.53
2018-04-12T00:59:22.217Z,12.60
2018-04-12T01:01:50.486Z,11.67
2018-04-12T01:04:18.761Z,13.07
2018-04-12T01:06:47.025Z,9.27
2018-04-12T01:09:15.309Z,13.47
2018-04-12T01:11:43.577Z,10.67
2018-04-12T01:14:11.857Z,12.47
2018-04-12T01:16:40.142Z,10.33
2018-04-12T01:19:08.425Z,13.40
2018-04-12T01:21:36.730Z,11.03
2018-04-12T01:24:04.981Z,12.70
2018-04-12T01:26:33.238Z,10.40
2018-04-12T01:29:01.509Z,16.43
2018-04-12T01:31:29.781Z,10.40
2018-04-12T01:33:58.061Z,17.47
2018-04-12T01:36:26.333Z,10.07
2018-04-12T01:38:54.601Z,9.33
2018-04-12T01:41:22.874Z,14.60
2018-04-12T01:43:51.142Z,16.70
2018-04-12T01:46:19.429Z,10.00
2018-04-12T01:48:47.702Z,13.23
2018-04-12T01:51:15.961Z,11.40
2018-04-12T01:53:44.246Z,19.07
2018-04-12T01:56:13.429Z,11.90
2018-04-12T02:01:38.915Z,14.27
2018-04-12T02:04:07.179Z,12.00
2018-04-12T02:06:35.467Z,14.47
2018-04-12T02:09:03.739Z,16.40
2018-04-12T02:11:32.016Z,18.90
2018-04-12T02:14:00.302Z,15.10
2018-04-12T02:16:28.576Z,12.33
2018-04-12T02:18:56.876Z,19.97
2018-04-12T02:21:25.146Z,12.40
2018-04-12T02:23:53.422Z,15.23
2018-04-12T02:26:21.704Z,13.40
2018-04-12T02:28:50.089Z,15.30
2018-04-12T02:31:18.364Z,14.97
2018-04-12T02:33:46.657Z,16.40
2018-04-12T02:36:14.932Z,14.33
2018-04-12T02:38:43.214Z,16.33
2018-04-12T02:41:11.500Z,16.90
2018-04-12T02:43:39.815Z,16.97
2018-04-12T02:46:08.093Z,16.43
2018-04-12T02:48:36.366Z,18.60
2018-04-12T02:51:04.658Z,14.33
2018-04-12T02:53:32.935Z,18.13
2018-04-12T02:56:01.267Z,15.93
2018-04-12T02:58:29.534Z,16.73
2018-04-12T03:00:57.814Z,18.60
2018-04-12T03:03:26.102Z,18.13
2018-04-12T03:05:54.386Z,20.40
2018-04-12T03:08:22.679Z,15.07
2018-04-12T03:10:50.946Z,13.97
2018-04-12T03:13:19.219Z,16.23
2018-04-12T03:15:47.503Z,13.93
2018-04-12T03:18:15.778Z,20.70
2018-04-12T03:20:44.079Z,18.57
2018-04-12T03:23:12.350Z,26.50
2018-04-12T03:25:40.626Z,17.33
2018-04-12T03:28:08.919Z,25.83
2018-04-12T03:30:37.219Z,21.63
2018-04-12T03:33:05.494Z,26.63
2018-04-12T03:35:33.771Z,16.43
2018-04-12T03:38:02.049Z,20.30
2018-04-12T03:40:30.342Z,21.57
2018-04-12T03:42:58.618Z,18.97
2018-04-12T03:45:26.914Z,25.23
2018-04-12T03:47:55.190Z,22.23
2018-04-12T03:50:23.530Z,22.27
2018-04-12T03:52:51.758Z,17.23
2018-04-12T03:55:20.040Z,18.87
2018-04-12T03:57:48.325Z,23.47
2018-04-12T04:00:16.602Z,17.03
2018-04-12T04:02:44.874Z,15.83
2018-04-12T04:05:13.151Z,16.43
2018-04-12T04:07:41.535Z,16.17
2018-04-12T04:10:09.823Z,16.70
2018-04-12T04:12:38.098Z,25.30
2018-04-12T04:15:18.058Z,18.13
2018-04-12T04:17:57.915Z,19.77
2018-04-12T04:20:37.914Z,15.60
2018-04-12T04:23:06.206Z,19.43
2018-04-12T04:25:34.480Z,14.73
2018-04-12T04:28:02.759Z,18.37
2018-04-12T04:30:31.036Z,19.50
2018-04-12T04:32:59.327Z,18.77
2018-04-12T04:35:27.603Z,17.97
2018-04-12T04:37:55.883Z,15.73
2018-04-12T04:40:24.166Z,15.87
2018-04-12T04:42:52.435Z,16.20
2018-04-12T04:45:20.763Z,16.00
2018-04-12T04:47:49.011Z,16.30
2018-04-12T04:50:17.289Z,16.27
2018-04-12T04:52:45.566Z,17.67
2018-04-12T04:55:13.847Z,20.07
2018-04-12T04:57:42.170Z,16.83
2018-04-12T05:00:10.474Z,16.63
2018-04-12T05:02:38.725Z,19.53
2018-04-12T05:05:07.010Z,17.00
2018-04-12T05:07:35.281Z,19.77
2018-04-12T05:10:03.579Z,14.57
2018-04-12T05:12:31.854Z,18.17
2018-04-12T05:15:00.138Z,15.97
2018-04-12T05:17:28.416Z,19.80
2018-04-12T05:19:56.694Z,17.40
2018-04-12T05:22:25.019Z,19.20
2018-04-12T05:24:53.294Z,15.50
2018-04-12T05:27:21.575Z,18.67
2018-04-12T05:29:49.862Z,18.43
2018-04-12T05:32:18.139Z,17.43
2018-04-12T05:34:46.426Z,14.47
2018-04-12T05:37:14.702Z,18.93
2018-04-12T05:39:42.995Z,18.33
2018-04-12T05:42:11.294Z,21.27
2018-04-12T05:44:39.575Z,21.00
2018-04-12T05:47:07.848Z,18.53
2018-04-12T05:49:36.139Z,17.53
2018-04-12T05:52:04.419Z,24.20
2018-04-12T05:54:32.691Z,19.30
2018-04-12T05:57:00.991Z,19.70
2018-04-12T05:59:29.266Z,17.43
2018-04-12T06:01:57.542Z,16.17
2018-04-12T06:04:25.844Z,20.20
2018-04-12T06:06:54.125Z,22.80
2018-04-12T06:09:22.398Z,17.87
2018-04-12T06:11:50.696Z,17.93
2018-04-12T06:14:18.975Z,17.77
2018-04-12T06:16:47.259Z,23.13
2018-04-12T06:19:15.550Z,17.87
2018-04-12T06:21:43.862Z,20.20
2018-04-12T06:24:12.139Z,17.93
2018-04-12T06:26:40.434Z,16.37
2018-04-12T06:29:08.706Z,15.00
2018-04-12T06:31:36.986Z,16.27
2018-04-12T06:34:05.281Z,21.27
2018-04-12T06:36:33.556Z,22.57
2018-04-12T06:39:01.835Z,24.17
2018-04-12T06:41:30.127Z,16.50
2018-04-12T06:43:58.410Z,17.47
2018-04-12T06:46:26.691Z,18.80
2018-04-12T06:48:54.981Z,27.03
2018-04-12T06:51:23.266Z,18.00
2018-04-12T06:53:51.545Z,19.27
2018-04-12T06:56:19.835Z,19.97
2018-04-12T06:58:48.112Z,22.07
2018-04-12T07:01:16.388Z,18.10
2018-04-12T07:03:44.686Z,22.50
2018-04-12T07:06:12.996Z,21.93
2018-04-12T07:08:41.243Z,27.77
2018-04-12T07:11:09.543Z,27.87
2018-04-12T07:13:37.819Z,23.60
2018-04-12T07:16:06.090Z,28.70
2018-04-12T07:18:34.382Z,28.57
2018-04-12T07:21:02.658Z,21.93
2018-04-12T07:23:30.934Z,23.00
2018-04-12T07:25:59.251Z,23.60
2018-04-12T07:28:27.526Z,24.13
2018-04-12T07:30:55.811Z,22.70
2018-04-12T07:33:24.126Z,28.20
2018-04-12T07:35:52.410Z,18.30
2018-04-12T07:38:20.690Z,26.90
2018-04-12T07:40:49.003Z,27.03
2018-04-12T07:43:17.278Z,27.07
2018-04-12T07:45:45.575Z,26.80
2018-04-12T07:48:13.885Z,26.77
2018-04-12T07:50:42.168Z,25.77
2018-04-12T07:53:10.439Z,26.27
2018-04-12T07:55:39.011Z,31.93
2018-04-12T07:58:07.286Z,26.33
2018-04-12T08:00:35.563Z,25.97
2018-04-12T08:03:03.854Z,25.50
2018-04-12T08:05:32.147Z,25.07
2018-04-12T08:08:00.476Z,22.70
2018-04-12T08:10:28.711Z,21.57
2018-04-12T08:12:56.981Z,28.47
2018-04-12T08:15:25.255Z,24.50
2018-04-12T08:17:53.558Z,27.17
2018-04-12T08:20:21.862Z,26.17
2018-04-12T08:22:50.143Z,25.93
2018-04-12T08:25:18.459Z,27.37
2018-04-12T08:27:46.746Z,26.57
2018-04-12T08:30:15.034Z,28.57
2018-04-12T08:32:43.318Z,29.50
2018-04-12T08:35:11.591Z,26.53
2018-04-12T08:37:39.898Z,27.67
2018-04-12T08:40:08.196Z,33.10
2018-04-12T08:42:36.476Z,28.00
2018-04-12T08:45:04.743Z,30.47
2018-04-12T08:47:33.040Z,27.20
2018-04-12T08:50:01.310Z,29.87
2018-04-12T08:52:29.594Z,32.03
2018-04-12T08:54:57.882Z,38.20
2018-04-12T08:57:26.166Z,33.40
2018-04-12T08:59:54.455Z,39.90
2018-04-12T09:02:22.735Z,35.77
2018-04-12T09:04:51.025Z,37.03
2018-04-12T09:07:19.298Z,34.97
2018-04-12T09:09:47.590Z,33.83
2018-04-12T09:12:15.873Z,36.30
2018-04-12T09:14:44.154Z,33.47
2018-04-12T09:17:12.426Z,41.20
2018-04-12T09:19:40.720Z,39.57
2018-04-12T09:22:08.996Z,35.40
2018-04-12T09:24:37.287Z,33.53
2018-04-12T09:27:05.568Z,34.00
2018-04-12T09:29:33.851Z,36.27
2018-04-12T09:32:02.153Z,31.83
2018-04-12T09:34:30.414Z,35.40
2018-04-12T09:36:58.707Z,35.70
2018-04-12T09:39:27.035Z,35.07
2018-04-12T09:41:55.330Z,37.40
2018-04-12T09:44:23.607Z,36.67
2018-04-12T09:46:51.894Z,34.10
2018-04-12T09:49:20.197Z,32.87
2018-04-12T09:51:48.483Z,35.93
2018-04-12T09:54:16.746Z,35.47
2018-04-12T09:56:45.047Z,32.73
2018-04-12T09:59:13.315Z,32.03
2018-04-12T10:01:47.160Z,31.97
2018-04-12T10:04:16.234Z,34.73
2018-04-12T10:06:50.009Z,35.03
2018-04-12T10:09:18.289Z,33.37
2018-04-12T10:11:46.558Z,34.77
2018-04-12T10:14:15.692Z,35.27
2018-04-12T10:16:43.957Z,35.73
2018-04-12T10:19:12.262Z,34.40
2018-04-12T10:21:40.595Z,33.83
2018-04-12T10:24:08.834Z,35.70
2018-04-12T10:26:37.110Z,34.10
2018-04-12T10:29:05.402Z,34.27
2018-04-12T10:31:33.675Z,36.90
2018-04-12T10:34:01.962Z,36.20
2018-04-12T10:36:30.241Z,32.67
2018-04-12T10:38:58.523Z,35.23
2018-04-12T10:41:26.802Z,35.60
2018-04-12T10:43:55.099Z,36.73
2018-04-12T10:46:23.391Z,35.80
2018-04-12T10:48:51.953Z,37.73
2018-04-12T10:51:20.236Z,32.13
2018-04-12T10:53:48.515Z,39.93
2018-04-12T10:56:16.806Z,38.43
2018-04-12T10:58:45.287Z,33.00
2018-04-12T11:01:13.664Z,39.97
2018-04-12T11:03:41.963Z,35.63
2018-04-12T11:06:10.491Z,29.40
2018-04-12T11:08:38.801Z,35.77
2018-04-12T11:11:07.095Z,31.40
2018-04-12T11:13:35.850Z,34.63
2018-04-12T11:16:04.170Z,34.63
2018-04-12T11:18:32.619Z,37.40
2018-04-12T11:21:00.855Z,33.40
2018-04-12T11:23:29.289Z,36.07
2018-04-12T11:25:57.665Z,32.60
2018-04-12T11:28:26.163Z,35.83
2018-04-12T11:30:54.844Z,36.30
2018-04-12T11:33:23.558Z,35.63
2018-04-12T11:35:51.923Z,34.13
2018-04-12T11:38:20.202Z,39.93
2018-04-12T11:40:48.479Z,31.30
2018-04-12T11:43:16.769Z,34.43
2018-04-12T11:45:45.075Z,33.97
2018-04-12T11:48:13.370Z,33.23
2018-04-12T11:50:41.654Z,33.53
2018-04-12T11:53:09.948Z,37.63
2018-04-12T11:55:38.258Z,33.77
2018-04-12T11:58:06.522Z,33.23
2018-04-12T12:00:34.804Z,34.57
2018-04-12T12:03:03.115Z,32.67
2018-04-12T12:05:31.546Z,31.30
2018-04-12T12:07:59.869Z,30.50
2018-04-12T12:10:28.166Z,30.40
2018-04-12T12:12:56.439Z,33.67
2018-04-12T12:15:24.719Z,35.67
2018-04-12T12:17:53.019Z,31.57
2018-04-12T12:20:21.291Z,24.70
2018-04-12T12:22:49.604Z,34.30
2018-04-12T12:28:14.598Z,29.20
2018-04-12T12:30:42.882Z,24.60
2018-04-12T12:33:11.164Z,21.03
2018-04-12T12:35:39.446Z,24.17
2018-04-12T12:38:07.736Z,23.27
2018-04-12T12:40:36.023Z,20.23
2018-04-12T12:43:04.310Z,27.73
2018-04-12T12:45:32.605Z,25.80
2018-04-12T12:48:00.881Z,25.97
2018-04-12T12:50:29.155Z,26.00
2018-04-12T12:52:57.439Z,22.00
2018-04-12T12:55:25.718Z,22.43
2018-04-12T12:57:54.008Z,23.63
2018-04-12T13:00:22.292Z,22.80
2018-04-12T13:02:51.629Z,20.00
2018-04-12T13:05:19.914Z,23.77
2018-04-12T13:07:48.205Z,27.27
2018-04-12T13:10:16.482Z,20.90
2018-04-12T13:12:45.674Z,29.63
2018-04-12T13:15:13.966Z,23.77
2018-04-12T13:17:42.238Z,23.03
2018-04-12T13:20:10.524Z,24.57
2018-04-12T13:22:38.809Z,23.63
2018-04-12T13:25:07.106Z,24.10
2018-04-12T13:27:35.377Z,22.73
2018-04-12T13:30:03.650Z,23.33
2018-04-12T13:32:31.941Z,23.67
2018-04-12T13:35:00.225Z,23.03
2018-04-12T13:37:28.503Z,22.83
2018-04-12T13:39:56.786Z,21.03
2018-04-12T13:42:25.110Z,20.67
2018-04-12T13:44:53.350Z,24.27
2018-04-12T13:47:21.641Z,21.37
2018-04-12T13:49:49.926Z,21.53
2018-04-12T13:52:18.199Z,25.77
2018-04-12T13:54:46.502Z,22.47
2018-04-12T13:57:14.776Z,22.47
2018-04-12T13:59:43.054Z,20.87
2018-04-12T14:02:11.336Z,17.40
2018-04-12T14:04:39.623Z,17.87
2018-04-12T14:07:07.891Z,18.77
2018-04-12T14:09:36.186Z,19.83
2018-04-12T14:12:04.470Z,18.57
2018-04-12T14:14:32.754Z,22.37
2018-04-12T14:17:01.047Z,15.63
2018-04-12T14:19:29.319Z,17.20
2018-04-12T14:21:57.610Z,23.33
2018-04-12T14:24:25.903Z,15.73
2018-04-12T14:26:54.189Z,19.43
2018-04-12T14:29:22.466Z,14.33
2018-04-12T14:31:50.735Z,17.20
2018-04-12T14:34:19.022Z,16.30
2018-04-12T14:36:47.295Z,17.23
2018-04-12T14:39:15.587Z,14.23
2018-04-12T14:41:43.884Z,19.47
2018-04-12T14:44:12.176Z,19.57
2018-04-12T14:46:40.450Z,17.13
2018-04-12T14:49:08.730Z,18.97
2018-04-12T14:51:37.024Z,18.57
2018-04-12T14:54:05.313Z,15.43
2018-04-12T14:56:33.607Z,15.10
2018-04-12T14:59:01.878Z,15.67
2018-04-12T15:01:30.158Z,14.50
2018-04-12T15:03:58.434Z,15.40
2018-04-12T15:06:26.716Z,17.00
2018-04-12T15:08:55.126Z,20.63
2018-04-12T15:11:23.430Z,16.50
2018-04-12T15:13:51.706Z,19.30
2018-04-12T15:16:19.997Z,15.83
2018-04-12T15:18:48.301Z,22.07
2018-04-12T15:21:16.566Z,16.70
2018-04-12T15:23:44.849Z,15.03
2018-04-12T15:26:13.138Z,17.80
2018-04-12T15:28:41.434Z,21.40
2018-04-12T15:31:09.735Z,16.63
2018-04-12T15:33:38.023Z,15.70
2018-04-12T15:36:06.314Z,15.83
2018-04-12T15:38:34.603Z,19.10
2018-04-12T15:41:02.881Z,14.37
2018-04-12T15:43:31.187Z,17.57
2018-04-12T15:45:59.524Z,16.00
2018-04-12T15:48:27.814Z,17.87
2018-04-12T15:50:56.698Z,16.93
2018-04-12T15:53:25.001Z,13.67
2018-04-12T15:55:53.279Z,13.97
2018-04-12T15:58:21.555Z,15.23
2018-04-12T16:00:50.102Z,16.57
2018-04-12T16:03:18.382Z,16.07
2018-04-12T16:05:46.667Z,19.97
2018-04-12T16:08:14.958Z,17.53
2018-04-12T16:10:43.238Z,16.30
2018-04-12T16:13:11.562Z,15.60
2018-04-12T16:15:39.842Z,17.37
2018-04-12T16:18:08.135Z,16.97
2018-04-12T16:20:36.419Z,18.63
2018-04-12T16:23:04.719Z,19.57
2018-04-12T16:25:33.008Z,18.27
2018-04-12T16:28:01.290Z,13.70
2018-04-12T16:30:29.583Z,13.87
2018-04-12T16:32:57.860Z,15.90
2018-04-12T16:35:26.153Z,16.33
2018-04-12T16:37:54.426Z,14.37
2018-04-12T16:40:22.702Z,15.20
2018-04-12T16:42:50.986Z,16.00
2018-04-12T16:45:19.254Z,11.10
2018-04-12T16:47:47.539Z,10.30
2018-04-12T16:50:15.814Z,11.20
2018-04-12T16:52:44.122Z,12.37
2018-04-12T16:55:12.420Z,11.27
2018-04-12T16:57:40.693Z,12.13
2018-04-12T17:00:08.995Z,10.97
2018-04-12T17:02:37.253Z,11.87
2018-04-12T17:05:05.550Z,10.13
2018-04-12T17:07:33.822Z,9.47
2018-04-12T17:10:02.359Z,9.57
2018-04-12T17:12:30.634Z,8.27
2018-04-12T17:14:58.898Z,9.33
2018-04-12T17:17:27.181Z,11.83
2018-04-12T17:19:55.458Z,16.23
2018-04-12T17:22:23.738Z,12.10
2018-04-12T17:24:52.006Z,8.17
2018-04-12T17:27:20.278Z,8.33
2018-04-12T17:29:48.565Z,9.90
2018-04-12T17:32:16.841Z,9.87
2018-04-12T17:34:45.119Z,7.50
2018-04-12T17:37:13.383Z,10.60
2018-04-12T17:39:41.670Z,11.40
2018-04-12T17:42:09.938Z,5.50
2018-04-12T17:44:38.215Z,7.17
2018-04-12T17:47:06.486Z,7.90
2018-04-12T17:49:34.755Z,8.20
2018-04-12T17:52:03.042Z,6.20
2018-04-12T17:54:31.319Z,7.87
2018-04-12T17:56:59.707Z,9.00
2018-04-12T17:59:27.975Z,7.67
2018-04-12T18:01:56.264Z,6.60
2018-04-12T18:04:24.526Z,7.27
2018-04-12T18:06:52.802Z,8.87
2018-04-12T18:09:21.075Z,9.23
2018-04-12T18:11:50.055Z,8.93
2018-04-12T18:14:18.485Z,7.83
2018-04-12T18:16:46.746Z,9.83
2018-04-12T18:19:15.045Z,10.60
2018-04-12T18:21:43.313Z,9.03
2018-04-12T18:24:11.588Z,9.60
2018-04-12T18:26:39.865Z,10.40
2018-04-12T18:29:08.142Z,9.13
2018-04-12T18:31:36.430Z,11.93
2018-04-12T18:34:04.706Z,8.87
2018-04-12T18:36:32.995Z,7.57
2018-04-12T18:39:01.258Z,6.90
2018-04-12T18:41:29.534Z,8.03
2018-04-12T18:43:57.822Z,6.20
2018-04-12T18:46:26.086Z,8.43
2018-04-12T18:48:54.404Z,6.23
2018-04-12T18:51:22.670Z,5.80
2018-04-12T18:53:50.951Z,4.43
2018-04-12T18:56:19.257Z,4.97
2018-04-12T18:58:47.521Z,5.73
2018-04-12T19:01:15.806Z,7.40
2018-04-12T19:03:44.075Z,6.00
2018-04-12T19:06:12.359Z,3.97
2018-04-12T19:08:40.631Z,5.97
2018-04-12T19:11:08.909Z,6.60
2018-04-12T19:13:37.179Z,8.67
2018-04-12T19:16:05.454Z,5.97
2018-04-12T19:18:33.738Z,6.33
2018-04-12T19:21:02.010Z,6.50
2018-04-12T19:23:30.285Z,5.67
2018-04-12T19:25:58.577Z,7.93
2018-04-12T19:28:26.855Z,6.53
2018-04-12T19:30:55.119Z,7.50
2018-04-12T19:33:23.402Z,7.57
2018-04-12T19:35:51.672Z,10.00
2018-04-12T19:38:19.946Z,6.37
2018-04-12T19:40:48.235Z,7.07
2018-04-12T19:43:16.502Z,4.67
2018-04-12T19:45:44.774Z,9.30
2018-04-12T19:48:13.054Z,6.53
2018-04-12T19:50:41.374Z,8.10
2018-04-12T19:53:09.659Z,9.87
2018-04-12T19:55:37.925Z,7.60
2018-04-12T19:58:06.197Z,10.53
2018-04-12T20:00:34.498Z,9.37
2018-04-12T20:03:02.774Z,8.43
2018-04-12T20:05:31.050Z,8.90
2018-04-12T20:07:59.578Z,9.67
2018-04-12T20:10:27.846Z,6.87
2018-04-12T20:12:56.107Z,9.33
2018-04-12T20:15:24.382Z,8.57
2018-04-12T20:17:52.645Z,8.33
2018-04-12T20:20:20.934Z,7.30
2018-04-12T20:22:49.220Z,8.50
2018-04-12T20:25:17.462Z,13.80
2018-04-12T20:27:45.726Z,9.33
2018-04-12T20:30:14.022Z,9.87
2018-04-12T20:32:42.285Z,10.93
2018-04-12T20:35:10.558Z,11.70
2018-04-12T20:37:38.849Z,9.73
2018-04-12T20:40:07.122Z,11.90
2018-04-12T20:42:35.405Z,11.90
2018-04-12T20:45:03.680Z,9.93
2018-04-12T20:47:31.958Z,10.70
2018-04-12T20:50:00.226Z,9.90
2018-04-12T20:52:28.514Z,12.37
2018-04-12T20:54:56.788Z,10.23
2018-04-12T20:57:25.074Z,8.47
2018-04-12T20:59:53.349Z,8.10
2018-04-12T21:02:21.612Z,9.03
2018-04-12T21:04:49.891Z,11.57
2018-04-12T21:07:18.158Z,8.57
2018-04-12T21:09:46.441Z,10.77
2018-04-12T21:12:14.707Z,9.77
2018-04-12T21:14:42.986Z,9.93
2018-04-12T21:17:11.254Z,8.13
2018-04-12T21:19:39.538Z,12.43
2018-04-12T21:22:07.829Z,7.73
2018-04-12T21:24:36.095Z,8.30
2018-04-12T21:27:04.382Z,13.53
2018-04-12T21:29:32.656Z,11.33
2018-04-12T21:32:00.940Z,7.80
2018-04-12T21:34:29.202Z,7.83
2018-04-12T21:36:57.742Z,7.93
2018-04-12T21:39:26.010Z,12.63
2018-04-12T21:41:54.279Z,9.20
2018-04-12T21:44:22.555Z,9.87
2018-04-12T21:46:50.818Z,9.60
2018-04-12T21:49:19.121Z,10.03
2018-04-12T21:51:47.382Z,15.20
2018-04-12T21:54:15.768Z,9.40
2018-04-12T21:56:44.038Z,11.17
2018-04-12T21:59:12.320Z,9.37
2018-04-12T22:01:40.590Z,8.80
2018-04-12T22:04:08.875Z,11.10
2018-04-12T22:06:37.145Z,8.00
2018-04-12T22:09:06.134Z,8.80
2018-04-12T22:11:34.418Z,7.70
2018-04-12T22:14:02.690Z,11.73
2018-04-12T22:16:30.966Z,9.13
2018-04-12T22:18:59.234Z,12.70
2018-04-12T22:21:27.764Z,10.23
2018-04-12T22:23:56.049Z,10.03
2018-04-12T22:26:24.327Z,13.13
2018-04-12T22:28:52.598Z,8.10
2018-04-12T22:31:20.874Z,10.43
2018-04-12T22:33:49.149Z,9.90
2018-04-12T22:36:17.402Z,8.20
2018-04-12T22:38:45.691Z,10.87
2018-04-12T22:41:13.979Z,8.80
2018-04-12T22:43:42.259Z,10.67
2018-04-12T22:46:10.534Z,10.50
2018-04-12T22:48:38.824Z,9.70
2018-04-12T22:51:07.082Z,9.80
2018-04-12T22:53:35.350Z,8.20
2018-04-12T22:56:03.624Z,7.93
2018-04-12T22:58:31.886Z,7.77
2018-04-12T23:01:00.158Z,8.63
2018-04-12T23:03:28.430Z,10.30
2018-04-12T23:05:56.702Z,11.53
2018-04-12T23:08:24.976Z,11.13
2018-04-12T23:10:53.263Z,12.80
2018-04-12T23:13:21.542Z,8.27
2018-04-12T23:15:49.810Z,8.03
2018-04-12T23:18:18.085Z,9.33
2018-04-12T23:20:46.359Z,10.07
2018-04-12T23:23:14.642Z,7.57
2018-04-12T23:25:42.906Z,8.70
2018-04-12T23:28:11.186Z,11.17
2018-04-12T23:30:39.454Z,7.47
2018-04-12T23:33:07.739Z,11.57
2018-04-12T23:35:36.022Z,10.97
2018-04-12T23:38:04.546Z,8.60
2018-04-12T23:40:32.821Z,7.70
2018-04-12T23:43:01.090Z,12.30
2018-04-12T23:45:29.373Z,13.40
2018-04-12T23:47:57.638Z,9.93
2018-04-12T23:50:25.918Z,8.03
2018-04-12T23:52:54.190Z,8.43
2018-04-12T23:55:22.471Z,9.40
2018-04-12T23:57:50.747Z,13.73
